Terminal Aerodrome Forecast
Issued by NWS

Home | Current Version | Previous Version | Text Only | Print | Product List | Glossary On
Versions: 1 2 3 4 5 6 7 8 9 10 11 12 13 14 15 16
000
FTUS43 KICT 030526
TAFHUT
TAF
KHUT 030526Z 0306/0406 06005KT P6SM OVC100
     FM031200 06006KT P6SM OVC040
     FM031500 09005KT P6SM -RA OVC020
     FM032200 09005KT P6SM VCSH OVC012
     FM040300 09005KT 3SM BR OVC007=

USA.gov is the U.S. government's official web portal to all federal, state and local government web resources and services.